Time;durP1;ratioP1;P1;durP2;ratioP2;P2;SDS_P1;SDS_P2;PMS_P1;PMS_P2;Temp;Humidity;BMP_temperature;BMP_pressure;BME280_temperature;BME280_humidity;BME280_pressure;Samples;Min_cycle;Max_cycle;Signal;HPM_P1;HPM_P2
2022/03/05 00:01:04;;;;;;;8.30;4.85;;;;;;;19.42;30.87;101829.59;7308747;19;130098;-50
2022/03/05 00:03:31;;;;;;;7.63;5.03;;;;;;;19.40;30.52;101837.31;7310443;19;129742;-52
2022/03/05 00:05:58;;;;;;;8.50;5.32;;;;;;;19.38;30.79;101836.72;7307772;19;130096;-49
2022/03/05 00:08:25;;;;;;;7.53;4.95;;;;;;;19.35;30.42;101838.00;7309430;19;130570;-50
2022/03/05 00:10:52;;;;;;;7.68;4.90;;;;;;;19.34;30.90;101841.84;7313765;19;129959;-51
2022/03/05 00:13:18;;;;;;;8.40;5.78;;;;;;;19.32;30.64;101849.53;7315816;19;129552;-47
2022/03/05 00:15:46;;;;;;;7.80;5.28;;;;;;;19.30;30.96;101851.72;7318845;19;129788;-50
2022/03/05 00:18:14;;;;;;;7.53;4.93;;;;;;;19.28;31.11;101847.47;7314408;19;131562;-53
2022/03/05 00:20:42;;;;;;;7.80;5.03;;;;;;;19.26;30.84;101847.69;7314364;19;131523;-49
2022/03/05 00:23:09;;;;;;;8.27;5.35;;;;;;;19.25;30.89;101842.41;7315548;19;130688;-50
2022/03/05 00:25:37;;;;;;;8.20;4.65;;;;;;;19.23;31.09;101839.81;7315164;19;129963;-51
2022/03/05 00:28:04;;;;;;;7.95;4.93;;;;;;;19.21;30.96;101841.97;7316951;19;130257;-48
2022/03/05 00:30:31;;;;;;;5.97;4.80;;;;;;;19.18;31.59;101836.88;7314715;19;130531;-48
2022/03/05 00:32:58;;;;;;;6.20;4.55;;;;;;;19.17;31.41;101847.09;7315562;19;129415;-50
2022/03/05 00:35:25;;;;;;;6.55;4.75;;;;;;;19.16;31.52;101844.56;7316738;19;129424;-50
2022/03/05 00:37:52;;;;;;;7.90;4.90;;;;;;;19.16;31.22;101844.56;7309866;19;129965;-51
2022/03/05 00:40:18;;;;;;;7.35;4.78;;;;;;;19.17;31.77;101840.72;7314465;19;130590;-55
2022/03/05 00:42:45;;;;;;;9.38;5.07;;;;;;;19.17;31.73;101841.56;7314181;19;130064;-51
2022/03/05 00:45:12;;;;;;;7.55;4.43;;;;;;;19.19;31.38;101846.91;7315148;19;128914;-49
2022/03/05 00:47:39;;;;;;;8.80;5.15;;;;;;;19.19;31.76;101844.13;7315924;19;129625;-47
2022/03/05 00:50:07;;;;;;;5.78;4.57;;;;;;;19.20;32.03;101843.06;7314098;19;130474;-53
2022/03/05 00:52:36;;;;;;;7.10;5.07;;;;;;;19.19;31.90;101842.19;7314395;19;129750;-49
2022/03/05 00:55:03;;;;;;;6.57;4.90;;;;;;;19.20;31.82;101845.81;7312680;19;129674;-46
2022/03/05 00:57:30;;;;;;;8.98;4.80;;;;;;;19.20;31.68;101831.97;7315154;19;130306;-46
2022/03/05 00:59:57;;;;;;;8.65;5.68;;;;;;;19.19;31.69;101833.88;7314101;19;129614;-60
2022/03/05 01:02:24;;;;;;;7.28;4.88;;;;;;;19.18;32.00;101843.25;7314179;19;129010;-61
2022/03/05 01:04:51;;;;;;;9.80;5.13;;;;;;;19.19;32.02;101844.13;7315379;19;129241;-50
2022/03/05 01:07:17;;;;;;;10.35;5.25;;;;;;;19.19;31.76;101846.91;7312128;19;130552;-53
2022/03/05 01:09:44;;;;;;;9.70;5.35;;;;;;;19.18;32.12;101845.19;7315596;19;130590;-46
2022/03/05 01:12:11;;;;;;;9.93;5.00;;;;;;;19.17;32.09;101846.28;7312866;19;130351;-57
2022/03/05 01:14:37;;;;;;;9.98;5.15;;;;;;;19.18;32.21;101853.53;7314750;19;129044;-57
2022/03/05 01:17:05;;;;;;;6.13;4.40;;;;;;;19.17;32.15;101857.38;7314445;19;130380;-52
2022/03/05 01:19:32;;;;;;;8.95;5.10;;;;;;;19.19;31.96;101858.81;7313287;19;129890;-49
2022/03/05 01:21:58;;;;;;;9.07;5.20;;;;;;;19.18;32.25;101859.06;7312768;19;129576;-52
2022/03/05 01:24:25;;;;;;;9.45;4.50;;;;;;;19.16;32.12;101856.50;7313036;19;130431;-50
2022/03/05 01:26:52;;;;;;;8.88;4.97;;;;;;;19.17;32.05;101857.38;7314809;19;130958;-48
2022/03/05 01:29:19;;;;;;;6.72;4.78;;;;;;;19.17;32.01;101857.38;7312855;19;129537;-51
2022/03/05 01:31:46;;;;;;;8.05;4.60;;;;;;;19.16;32.30;101855.66;7312744;19;128893;-55
2022/03/05 01:34:13;;;;;;;17.30;5.00;;;;;;;19.14;32.37;101852.25;7315437;19;129063;-52
2022/03/05 01:36:39;;;;;;;8.02;5.05;;;;;;;19.11;32.18;101853.56;7311786;19;130438;-50
2022/03/05 01:39:06;;;;;;;8.57;4.82;;;;;;;19.07;32.55;101855.97;7313484;19;130131;-52
2022/03/05 01:41:33;;;;;;;9.52;5.10;;;;;;;19.06;32.48;101862.59;7312337;19;129656;-51
2022/03/05 01:44:00;;;;;;;10.68;5.13;;;;;;;19.04;32.41;101864.72;7313383;19;130380;-51
2022/03/05 01:46:36;;;;;;;14.80;4.72;;;;;;;19.02;32.50;101857.69;7313570;19;130692;-52
2022/03/05 01:49:05;;;;;;;10.93;4.97;;;;;;;18.99;32.53;101855.38;7311459;19;129813;-54
2022/03/05 01:51:32;;;;;;;7.57;4.60;;;;;;;18.96;32.17;101845.56;7314094;19;130564;-51
2022/03/05 01:53:59;;;;;;;7.25;4.70;;;;;;;18.95;32.57;101843.91;7313714;19;129197;-49
2022/03/05 01:56:27;;;;;;;10.85;4.60;;;;;;;18.94;32.32;101846.88;7312202;19;130493;-49
2022/03/05 01:58:55;;;;;;;7.80;4.43;;;;;;;18.92;32.33;101849.91;7313468;19;130231;-51
2022/03/05 02:01:24;;;;;;;6.90;4.88;;;;;;;18.90;32.38;101846.50;7310133;19;130109;-49
2022/03/05 02:03:52;;;;;;;6.75;4.38;;;;;;;18.87;32.51;101841.41;7312270;19;131538;-55
2022/03/05 02:06:20;;;;;;;9.60;4.30;;;;;;;18.86;32.67;101845.25;7313858;19;131077;-50
2022/03/05 02:08:48;;;;;;;10.18;4.90;;;;;;;18.85;32.82;101849.09;7311435;19;130105;-49
2022/03/05 02:11:16;;;;;;;7.47;4.60;;;;;;;18.84;32.44;101844.59;7312177;19;131420;-52
2022/03/05 02:13:42;;;;;;;8.35;4.88;;;;;;;18.82;32.80;101846.78;7311193;19;129768;-49
2022/03/05 02:16:10;;;;;;;9.02;4.75;;;;;;;18.80;32.55;101843.38;7312103;19;130522;-48
2022/03/05 02:18:37;;;;;;;6.25;4.63;;;;;;;18.79;32.91;101842.53;7312343;19;130081;-51
2022/03/05 02:21:04;;;;;;;5.57;3.95;;;;;;;18.77;32.90;101842.75;7309082;19;130322;-52
2022/03/05 02:23:31;;;;;;;5.68;4.30;;;;;;;18.75;33.02;101844.91;7313185;19;129586;-52
2022/03/05 02:26:00;;;;;;;7.75;4.65;;;;;;;18.73;32.69;101847.03;7312488;19;130152;-51
2022/03/05 02:28:28;;;;;;;8.15;4.70;;;;;;;18.73;33.02;101847.03;7311546;19;129941;-50
2022/03/05 02:30:55;;;;;;;6.20;4.40;;;;;;;18.71;32.54;101843.63;7312897;19;131378;-51
2022/03/05 02:33:22;;;;;;;8.93;4.53;;;;;;;18.69;32.93;101842.19;7308239;19;129363;-48
2022/03/05 02:35:49;;;;;;;6.45;4.40;;;;;;;18.68;32.84;101840.47;7312759;19;130640;-49
2022/03/05 02:38:18;;;;;;;9.10;4.60;;;;;;;18.67;32.52;101842.41;7312158;19;130456;-48
2022/03/05 02:40:47;;;;;;;5.93;4.75;;;;;;;18.66;32.56;101835.16;7310457;19;128994;-51
2022/03/05 02:43:14;;;;;;;6.40;4.32;;;;;;;18.64;32.79;101837.31;7311411;19;130152;-55
2022/03/05 02:45:42;;;;;;;6.90;4.57;;;;;;;18.63;33.11;101835.59;7309554;19;129873;-51
2022/03/05 02:48:12;;;;;;;7.65;4.40;;;;;;;18.62;32.78;101831.13;7311912;19;129901;-48
2022/03/05 02:50:41;;;;;;;5.40;4.28;;;;;;;18.60;32.78;101831.38;7312411;19;130321;-49
2022/03/05 02:53:08;;;;;;;6.75;4.80;;;;;;;18.58;32.98;101836.28;7309019;19;129881;-51
2022/03/05 02:55:36;;;;;;;6.25;4.35;;;;;;;18.57;32.69;101840.13;7311490;19;130054;-52
2022/03/05 02:58:03;;;;;;;7.50;4.90;;;;;;;18.56;32.72;101841.19;7309655;19;129417;-53
2022/03/05 03:00:31;;;;;;;6.80;4.55;;;;;;;18.56;32.92;101840.34;7312106;19;129861;-54
2022/03/05 03:02:58;;;;;;;7.93;4.70;;;;;;;18.54;32.95;101834.19;7309621;19;129768;-48
2022/03/05 03:05:25;;;;;;;9.30;4.85;;;;;;;18.53;33.08;101847.19;7309031;19;130497;-54
2022/03/05 03:07:52;;;;;;;6.75;4.68;;;;;;;18.52;32.67;101834.41;7312136;19;129510;-50
2022/03/05 03:10:19;;;;;;;6.45;4.72;;;;;;;18.51;32.80;101834.63;7307304;19;128945;-50
2022/03/05 03:12:46;;;;;;;6.75;4.82;;;;;;;18.50;32.77;101835.69;7310845;19;129524;-56
2022/03/05 03:15:14;;;;;;;8.88;4.70;;;;;;;18.49;32.81;101834.00;7311770;19;131391;-53
2022/03/05 03:17:43;;;;;;;7.50;4.50;;;;;;;18.48;33.18;101829.53;7309505;19;130752;-51
2022/03/05 03:20:11;;;;;;;7.22;4.53;;;;;;;18.48;33.10;101835.06;7311279;19;130665;-55
2022/03/05 03:22:39;;;;;;;6.90;3.97;;;;;;;18.46;33.14;101840.84;7307553;19;129796;-53
2022/03/05 03:25:07;;;;;;;5.28;4.10;;;;;;;18.44;32.83;101835.53;7309830;19;129979;-49
2022/03/05 03:27:34;;;;;;;7.93;4.70;;;;;;;18.43;33.18;101847.69;7311160;19;129508;-51
2022/03/05 03:30:03;;;;;;;6.63;4.28;;;;;;;18.42;33.14;101842.34;7307272;19;129516;-51
2022/03/05 03:32:29;;;;;;;7.60;4.45;;;;;;;18.42;32.84;101845.13;7307542;19;128870;-50
2022/03/05 03:34:56;;;;;;;7.30;4.70;;;;;;;18.42;32.99;101850.66;7306921;19;130125;-54
2022/03/05 03:37:28;;;;;;;7.68;4.65;;;;;;;18.40;32.84;101839.81;7305070;19;129498;-51
2022/03/05 03:40:00;;;;;;;8.05;4.53;;;;;;;18.40;33.08;101844.53;7306162;19;130539;-52
2022/03/05 03:42:27;;;;;;;5.32;4.22;;;;;;;18.38;33.10;101844.69;7303699;19;129378;-57
2022/03/05 03:44:54;;;;;;;5.70;4.47;;;;;;;18.36;33.00;101841.28;7306473;19;130619;-50
2022/03/05 03:47:24;;;;;;;6.00;4.50;;;;;;;18.35;33.10;101836.81;7306014;19;129912;-53
2022/03/05 03:49:52;;;;;;;6.90;4.45;;;;;;;18.35;33.08;101839.59;7305606;19;131025;-50
2022/03/05 03:52:19;;;;;;;6.53;4.50;;;;;;;18.33;33.20;101841.75;7307262;19;129859;-53
2022/03/05 03:54:47;;;;;;;5.10;3.90;;;;;;;18.34;32.94;101831.50;7305679;19;131634;-49
2022/03/05 03:57:14;;;;;;;5.70;4.50;;;;;;;18.32;32.79;101840.06;7307162;19;129648;-54
2022/03/05 03:59:42;;;;;;;8.65;4.53;;;;;;;18.30;33.03;101836.66;7309865;19;130580;-53
2022/03/05 04:02:08;;;;;;;6.38;4.60;;;;;;;18.30;32.78;101836.66;7308267;19;129718;-49
2022/03/05 04:04:35;;;;;;;5.97;4.28;;;;;;;18.29;33.01;101834.94;7311654;19;130865;-52
2022/03/05 04:09:48;;;;;;;6.65;4.60;;;;;;;18.28;33.05;101838.78;7308916;19;129131;-50
2022/03/05 04:12:15;;;;;;;5.97;4.45;;;;;;;18.24;33.04;101843.06;7309748;19;129812;-52
2022/03/05 04:14:42;;;;;;;5.18;4.18;;;;;;;18.23;32.75;101841.34;7307295;19;131098;-49
2022/03/05 04:17:10;;;;;;;6.82;4.38;;;;;;;18.24;32.81;101848.59;7308620;19;130046;-54
2022/03/05 04:19:36;;;;;;;6.70;4.80;;;;;;;18.22;33.08;101839.66;7309845;19;129316;-52
2022/03/05 04:22:04;;;;;;;6.50;4.63;;;;;;;18.22;33.01;101845.19;7309524;19;130288;-50
2022/03/05 04:24:31;;;;;;;7.05;4.43;;;;;;;18.21;33.04;101843.53;7309441;19;131199;-53
2022/03/05 04:26:57;;;;;;;5.88;4.22;;;;;;;18.20;33.05;101844.59;7306986;19;132801;-50
2022/03/05 04:29:24;;;;;;;5.88;4.47;;;;;;;18.20;33.05;101841.81;7309093;19;129050;-52
2022/03/05 04:31:51;;;;;;;5.70;4.45;;;;;;;18.18;33.09;101844.78;7309596;19;129488;-51
2022/03/05 04:34:18;;;;;;;6.22;4.80;;;;;;;18.18;32.90;101847.56;7307315;19;129815;-51
2022/03/05 04:36:45;;;;;;;4.90;4.28;;;;;;;18.18;32.80;101849.50;7308369;19;131012;-51
2022/03/05 04:39:12;;;;;;;6.57;4.45;;;;;;;18.17;32.77;101856.94;7305714;19;129205;-51
2022/03/05 04:41:39;;;;;;;5.47;4.53;;;;;;;18.18;33.16;101849.50;7306546;19;129211;-50
2022/03/05 04:44:07;;;;;;;5.70;4.30;;;;;;;18.16;33.21;101855.25;7309263;19;129482;-54
2022/03/05 04:46:34;;;;;;;5.10;4.35;;;;;;;18.15;33.17;101854.41;7305292;19;129631;-53
2022/03/05 04:49:02;;;;;;;9.57;4.28;;;;;;;18.13;32.82;101853.75;7309093;19;129584;-52
2022/03/05 04:51:29;;;;;;;5.55;4.32;;;;;;;18.13;33.19;101853.75;7306177;19;130375;-52
2022/03/05 04:53:56;;;;;;;5.78;4.05;;;;;;;18.11;32.95;101858.66;7308478;19;131063;-49
2022/03/05 04:56:23;;;;;;;5.72;4.53;;;;;;;18.12;33.15;101863.16;7309964;19;129550;-51
2022/03/05 04:58:49;;;;;;;5.88;4.63;;;;;;;18.10;32.67;101856.97;7312223;19;130186;-54
2022/03/05 05:01:18;;;;;;;4.90;4.35;;;;;;;18.09;33.08;101858.03;7316485;19;129899;-55
2022/03/05 05:03:46;;;;;;;6.15;4.55;;;;;;;18.09;32.95;101852.50;7311737;19;129492;-50
2022/03/05 05:06:13;;;;;;;5.57;4.50;;;;;;;18.07;32.65;101854.66;7314982;19;130878;-53
2022/03/05 05:08:40;;;;;;;6.03;4.70;;;;;;;18.07;33.06;101862.97;7314495;19;128953;-51
2022/03/05 05:11:07;;;;;;;5.00;4.18;;;;;;;18.07;32.92;101864.88;7312006;19;128854;-50
2022/03/05 05:13:34;;;;;;;6.45;4.40;;;;;;;18.06;32.82;101858.50;7315087;19;129605;-52
2022/03/05 05:16:01;;;;;;;6.10;4.50;;;;;;;18.06;32.67;101858.50;7311845;19;130287;-51
2022/03/05 05:18:28;;;;;;;7.43;4.60;;;;;;;18.06;32.73;101860.41;7313292;19;131384;-49
2022/03/05 05:20:54;;;;;;;6.45;4.38;;;;;;;18.04;32.61;101860.63;7315282;19;129823;-52
2022/03/05 05:23:21;;;;;;;5.70;4.40;;;;;;;18.03;32.79;101852.56;7312326;19;130284;-52
2022/03/05 05:25:48;;;;;;;6.85;4.35;;;;;;;18.01;33.07;101855.53;7315001;19;129958;-52
2022/03/05 05:28:15;;;;;;;5.80;4.35;;;;;;;18.00;32.61;101851.06;7315808;19;129300;-51
2022/03/05 05:30:46;;;;;;;5.05;4.20;;;;;;;18.01;32.68;101855.53;7313466;19;129284;-49
2022/03/05 05:33:13;;;;;;;5.60;4.10;;;;;;;17.99;33.10;101857.66;7314189;19;130113;-49
2022/03/05 05:35:40;;;;;;;6.03;4.45;;;;;;;17.99;32.77;101852.13;7312896;19;130405;-52
2022/03/05 05:38:06;;;;;;;5.03;4.40;;;;;;;17.97;33.08;101860.66;7312103;19;129260;-55
2022/03/05 05:40:34;;;;;;;6.65;4.45;;;;;;;17.97;32.63;101862.59;7314297;19;129021;-48
2022/03/05 05:43:01;;;;;;;5.55;4.45;;;;;;;17.96;33.00;101869.19;7311831;19;130174;-53
2022/03/05 05:45:28;;;;;;;6.18;4.90;;;;;;;17.95;32.60;101870.25;7313584;19;129565;-60
2022/03/05 05:47:55;;;;;;;7.25;4.18;;;;;;;17.95;32.60;101870.25;7312551;19;131367;-60
2022/03/05 05:50:22;;;;;;;4.90;4.07;;;;;;;17.94;32.83;101872.16;7314417;19;129561;-54
2022/03/05 05:52:49;;;;;;;5.30;4.00;;;;;;;17.92;32.67;101867.91;7314076;19;129872;-56
2022/03/05 05:55:16;;;;;;;5.72;4.30;;;;;;;17.90;32.68;101873.69;7312102;19;130671;-65
2022/03/05 05:57:42;;;;;;;5.07;4.38;;;;;;;17.90;32.80;101864.53;7314041;19;129459;-56
2022/03/05 06:00:10;;;;;;;6.18;4.68;;;;;;;17.90;32.57;101862.63;7310515;19;129145;-64
2022/03/05 06:02:37;;;;;;;4.57;4.07;;;;;;;17.89;32.80;101869.22;7313427;19;129911;-58
2022/03/05 06:05:04;;;;;;;5.88;4.15;;;;;;;17.88;32.48;101869.41;7314149;19;130828;-64
2022/03/05 06:07:31;;;;;;;4.53;4.00;;;;;;;17.87;32.56;101859.41;7310600;19;129590;-62
2022/03/05 06:09:58;;;;;;;6.05;4.45;;;;;;;17.87;32.70;101876.03;7313753;19;129068;-61
2022/03/05 06:12:25;;;;;;;5.53;3.90;;;;;;;17.87;32.52;101870.47;7313305;19;130909;-67
2022/03/05 06:14:51;;;;;;;4.65;4.07;;;;;;;17.85;32.48;101871.56;7311890;19;130534;-71
2022/03/05 06:17:18;;;;;;;5.10;4.32;;;;;;;17.85;32.57;101867.94;7314422;19;129673;-66
2022/03/05 06:19:45;;;;;;;5.35;3.90;;;;;;;17.84;32.54;101869.88;7311519;19;129233;-65
2022/03/05 06:22:12;;;;;;;4.68;3.75;;;;;;;17.83;32.61;101859.88;7313597;19;130160;-68
2022/03/05 06:24:38;;;;;;;5.90;4.28;;;;;;;17.82;32.93;101863.69;7312759;19;129609;-49
2022/03/05 06:27:05;;;;;;;4.82;3.80;;;;;;;17.83;33.10;101862.63;7311740;19;129133;-54
2022/03/05 06:29:32;;;;;;;4.90;3.90;;;;;;;17.82;32.87;101880.31;7314179;19;129235;-52
2022/03/05 06:31:59;;;;;;;4.53;3.83;;;;;;;17.82;32.63;101882.22;7310891;19;129886;-52
2022/03/05 06:34:27;;;;;;;4.88;4.38;;;;;;;17.80;32.87;101876.91;7311571;19;129506;-50
2022/03/05 06:36:55;;;;;;;6.47;4.00;;;;;;;17.85;33.50;101884.56;7312071;19;130012;-52
2022/03/05 06:39:22;;;;;;;4.55;3.97;;;;;;;17.90;33.39;101879.22;7310397;19;132101;-51
2022/03/05 06:41:49;;;;;;;4.30;3.60;;;;;;;18.00;33.04;101881.50;7311041;19;129980;-49
2022/03/05 06:44:16;;;;;;;4.80;3.40;;;;;;;18.15;32.85;101884.03;7309861;19;129568;-52
2022/03/05 06:46:43;;;;;;;5.47;3.40;;;;;;;18.36;33.02;101885.59;7311986;19;128830;-53
2022/03/05 06:49:10;;;;;;;4.68;3.60;;;;;;;18.64;32.66;101881.66;7311118;19;129141;-52
2022/03/05 06:51:37;;;;;;;6.28;3.78;;;;;;;18.95;32.28;101898.50;7310540;19;129564;-50
2022/03/05 06:54:04;;;;;;;4.55;3.63;;;;;;;19.27;31.54;101891.00;7312147;19;130325;-50
2022/03/05 06:56:30;;;;;;;3.95;3.28;;;;;;;19.58;31.17;101891.16;7310185;19;132319;-48
2022/03/05 06:58:57;;;;;;;5.93;3.60;;;;;;;19.89;30.76;101897.63;7311432;19;129317;-47
2022/03/05 07:01:24;;;;;;;5.70;3.70;;;;;;;20.13;30.58;101898.69;7310181;19;130327;-48
2022/03/05 07:03:51;;;;;;;6.60;3.50;;;;;;;20.34;30.49;101904.81;7308926;19;131050;-46
2022/03/05 07:06:18;;;;;;;4.05;3.40;;;;;;;20.48;30.31;101911.06;7311498;19;129747;-47
2022/03/05 07:08:45;;;;;;;5.15;3.33;;;;;;;20.63;29.92;101907.84;7309211;19;128969;-51
2022/03/05 07:11:12;;;;;;;6.03;3.63;;;;;;;20.74;29.78;101910.66;7311287;19;129594;-45
2022/03/05 07:13:38;;;;;;;4.30;3.10;;;;;;;20.85;29.79;101909.03;7311688;19;130475;-46
2022/03/05 07:16:06;;;;;;;4.85;3.72;;;;;;;20.94;29.56;101914.25;7310382;19;129849;-47
2022/03/05 07:18:32;;;;;;;5.82;3.40;;;;;;;20.99;29.35;101911.59;7312561;19;129405;-47
2022/03/05 07:20:59;;;;;;;6.93;3.42;;;;;;;21.02;29.11;101920.31;7308579;19;130087;-47
2022/03/05 07:23:27;;;;;;;8.77;3.72;;;;;;;21.05;28.99;101918.97;7308652;19;130694;-48
2022/03/05 07:25:54;;;;;;;7.28;3.33;;;;;;;21.06;29.13;101920.69;7312011;19;129405;-49
2022/03/05 07:28:21;;;;;;;6.00;3.75;;;;;;;21.05;28.85;101916.19;7308288;19;129550;-46
2022/03/05 07:30:47;;;;;;;8.95;3.67;;;;;;;21.04;29.01;101917.31;7311567;19;129969;-49
2022/03/05 07:33:14;;;;;;;5.65;3.80;;;;;;;21.03;28.77;101921.19;7310857;19;130049;-48
2022/03/05 07:35:42;;;;;;;6.53;3.47;;;;;;;20.99;29.30;101923.56;7310300;19;129701;-52
2022/03/05 07:38:08;;;;;;;6.20;3.95;;;;;;;20.94;29.16;101930.94;7310263;19;129480;-48
2022/03/05 07:40:35;;;;;;;5.07;3.80;;;;;;;20.89;28.92;101926.94;7307446;19;130739;-50
2022/03/05 07:43:02;;;;;;;6.53;4.00;;;;;;;20.83;29.09;101925.09;7310667;19;129505;-52
2022/03/05 07:45:29;;;;;;;6.32;4.15;;;;;;;20.79;29.00;101923.03;7310196;19;129020;-53
2022/03/05 07:47:56;;;;;;;6.40;4.15;;;;;;;20.74;29.21;101927.34;7309673;19;129395;-50
2022/03/05 07:50:23;;;;;;;5.22;4.30;;;;;;;20.70;29.25;101936.38;7311422;19;130108;-48
2022/03/05 07:52:49;;;;;;;6.65;4.00;;;;;;;20.66;29.29;101935.19;7307722;19;130388;-52
2022/03/05 07:55:16;;;;;;;7.18;4.00;;;;;;;20.62;29.05;101943.13;7309849;19;129244;-49
2022/03/05 07:57:43;;;;;;;5.55;3.92;;;;;;;20.65;28.78;101950.16;7310122;19;130277;-46
2022/03/05 08:00:10;;;;;;;5.65;3.85;;;;;;;20.69;29.07;101949.47;7308232;19;131836;-46
2022/03/05 08:02:52;;;;;;;7.32;4.72;;;;;;;20.69;28.86;101946.69;7308572;19;130542;-53
2022/03/05 08:05:19;;;;;;;7.35;4.22;;;;;;;20.66;28.66;101941.59;7306532;19;128926;-50
2022/03/05 08:07:46;;;;;;;8.25;4.47;;;;;;;20.62;28.93;101945.91;7308405;19;129656;-50
2022/03/05 08:10:13;;;;;;;6.55;4.32;;;;;;;20.55;29.15;101948.81;7310554;19;131042;-49
2022/03/05 08:12:40;;;;;;;8.27;4.25;;;;;;;20.49;29.32;101944.16;7307749;19;130716;-48
2022/03/05 08:15:08;;;;;;;10.35;4.43;;;;;;;20.44;29.34;101942.09;7310688;19;129092;-46
2022/03/05 08:17:35;;;;;;;8.52;4.47;;;;;;;20.40;29.58;101946.41;7307057;19;129066;-51
2022/03/05 08:20:02;;;;;;;9.30;5.15;;;;;;;20.36;29.25;101948.00;7308636;19;132342;-48
2022/03/05 08:22:30;;;;;;;8.68;5.20;;;;;;;20.32;29.54;101945.88;7298283;19;132933;-49
2022/03/05 08:24:57;;;;;;;7.07;4.72;;;;;;;20.27;29.84;101950.22;7306608;19;130471;-49
2022/03/05 08:27:24;;;;;;;12.93;5.20;;;;;;;20.23;29.85;101946.19;7311143;19;129295;-52
2022/03/05 08:29:50;;;;;;;10.45;4.97;;;;;;;20.21;29.52;101956.69;7306270;19;129630;-48
2022/03/05 08:32:17;;;;;;;9.98;4.75;;;;;;;20.20;29.91;101962.50;7312689;19;130591;-58
2022/03/05 08:34:47;;;;;;;9.07;4.95;;;;;;;20.17;29.94;101965.72;7316617;19;128816;-51
2022/03/05 08:37:14;;;;;;;7.40;5.03;;;;;;;20.14;29.93;101964.28;7315269;19;128900;-49
2022/03/05 08:39:41;;;;;;;7.45;4.90;;;;;;;20.11;29.53;101967.50;7315843;19;129600;-54
2022/03/05 08:42:08;;;;;;;8.00;5.20;;;;;;;20.09;29.49;101961.31;7312459;19;129540;-56
2022/03/05 08:44:35;;;;;;;9.32;5.00;;;;;;;20.06;29.91;101968.19;7313997;19;129980;-53
2022/03/05 08:47:02;;;;;;;7.78;4.82;;;;;;;20.03;29.59;101962.25;7315321;19;130164;-51
2022/03/05 08:49:29;;;;;;;8.63;4.80;;;;;;;19.98;29.44;101963.75;7314389;19;129457;-56
2022/03/05 08:51:56;;;;;;;11.05;5.38;;;;;;;19.95;29.55;101969.78;7316566;19;129437;-50
2022/03/05 08:54:25;;;;;;;8.63;5.07;;;;;;;19.91;29.50;101960.22;7314517;19;129449;-51
2022/03/05 08:56:52;;;;;;;11.23;5.20;;;;;;;19.87;29.71;101950.66;7315704;19;129028;-52
2022/03/05 08:59:19;;;;;;;10.10;5.40;;;;;;;19.83;29.87;101950.25;7316064;19;129605;-53
2022/03/05 09:01:46;;;;;;;9.55;5.20;;;;;;;19.80;29.72;101955.44;7312051;19;130486;-57
2022/03/05 09:04:13;;;;;;;12.63;5.32;;;;;;;19.76;29.66;101959.72;7313975;19;129686;-50
2022/03/05 09:06:40;;;;;;;8.88;5.30;;;;;;;19.73;29.84;101962.97;7313265;19;128995;-50
2022/03/05 09:09:07;;;;;;;12.52;5.93;;;;;;;19.69;29.70;101965.34;7314234;19;130154;-52
2022/03/05 09:11:37;;;;;;;10.73;5.50;;;;;;;19.66;30.14;101960.25;7314693;19;130249;-52
2022/03/05 09:14:05;;;;;;;8.15;5.38;;;;;;;19.63;29.92;101971.81;7310157;19;129288;-52
2022/03/05 09:16:32;;;;;;;9.25;5.40;;;;;;;19.60;29.93;101967.56;7314320;19;128780;-52
2022/03/05 09:18:59;;;;;;;12.20;5.47;;;;;;;19.58;29.97;101968.88;7310741;19;129878;-52
2022/03/05 09:21:25;;;;;;;10.80;5.97;;;;;;;19.55;29.96;101977.66;7313057;19;129866;-52
2022/03/05 09:23:52;;;;;;;12.15;5.80;;;;;;;19.52;30.29;101973.41;7315171;19;129058;-52
2022/03/05 09:26:19;;;;;;;8.32;5.32;;;;;;;19.50;30.25;101972.78;7312752;19;129359;-49
2022/03/05 09:28:45;;;;;;;8.48;5.78;;;;;;;19.48;30.12;101969.38;7314895;19;131294;-55
2022/03/05 09:31:12;;;;;;;7.47;5.50;;;;;;;19.46;30.20;101974.28;7311421;19;129497;-52
2022/03/05 09:33:39;;;;;;;10.55;5.93;;;;;;;19.42;30.26;101971.13;7311023;19;132371;-55
2022/03/05 09:36:06;;;;;;;11.75;6.00;;;;;;;19.39;30.17;101974.34;7312256;19;130737;-50
2022/03/05 09:38:33;;;;;;;10.43;5.75;;;;;;;19.36;30.12;101964.56;7310192;19;130510;-51
2022/03/05 09:41:02;;;;;;;9.57;5.55;;;;;;;19.34;30.18;101974.19;7313767;19;129589;-51
2022/03/05 09:43:29;;;;;;;8.07;5.78;;;;;;;19.31;30.07;101969.09;7312005;19;129613;-49
2022/03/05 09:45:59;;;;;;;9.25;6.07;;;;;;;19.27;30.00;101973.38;7314987;19;130169;-51
2022/03/05 09:48:28;;;;;;;11.05;5.78;;;;;;;19.22;30.02;101971.28;7315296;19;129657;-51
2022/03/05 09:50:55;;;;;;;10.68;6.18;;;;;;;19.18;30.43;101967.25;7313253;19;129459;-47
2022/03/05 09:53:29;;;;;;;11.20;6.40;;;;;;;19.16;30.05;101969.41;7314617;19;128867;-51
2022/03/05 09:55:56;;;;;;;10.40;6.03;;;;;;;19.12;29.96;101968.13;7315816;19;129435;-51
2022/03/05 09:58:43;;;;;;;17.42;7.43;;;;;;;19.05;30.12;101971.81;7309880;19;134239;-52
2022/03/05 10:01:10;;;;;;;11.38;7.45;;;;;;;19.02;30.17;101972.25;7310629;19;129636;-49
2022/03/05 10:03:55;;;;;;;12.95;7.95;;;;;;;18.99;29.96;101969.94;7310280;19;129573;-50
2022/03/05 10:06:24;;;;;;;13.18;9.02;;;;;;;18.96;29.73;101975.91;7312059;19;129323;-51
2022/03/05 10:08:51;;;;;;;13.52;8.80;;;;;;;18.92;29.74;101969.13;7312399;19;132547;-53
2022/03/05 10:11:19;;;;;;;12.60;8.43;;;;;;;18.90;29.61;101968.50;7309366;19;130103;-53
2022/03/05 10:13:46;;;;;;;15.90;8.20;;;;;;;18.88;29.41;101971.50;7313214;19;129372;-51
2022/03/05 10:16:24;;;;;;;10.05;7.38;;;;;;;18.86;29.43;101968.09;7312440;19;130554;-48
2022/03/05 10:18:52;;;;;;;13.82;7.75;;;;;;;18.84;29.48;101969.38;7312515;19;129658;-52
2022/03/05 10:21:27;;;;;;;11.60;7.97;;;;;;;18.82;29.86;101977.94;7312244;19;129540;-50
2022/03/05 10:24:07;;;;;;;11.05;7.75;;;;;;;18.81;29.51;101964.28;7309162;19;130139;-49
2022/03/05 10:26:55;;;;;;;11.57;8.73;;;;;;;18.77;29.75;101966.63;7310590;19;129204;-49
2022/03/05 10:29:25;;;;;;;14.32;9.35;;;;;;;18.75;29.39;101966.03;7311877;19;130050;-52
2022/03/05 10:31:57;;;;;;;14.75;9.27;;;;;;;18.73;29.34;101969.00;7309499;19;135031;-48
2022/03/05 10:34:24;;;;;;;13.23;8.85;;;;;;;18.71;29.52;101971.16;7309813;19;130194;-53
2022/03/05 10:36:59;;;;;;;13.88;9.30;;;;;;;18.70;29.22;101963.94;7311216;19;129159;-48
2022/03/05 10:39:27;;;;;;;13.80;9.23;;;;;;;18.69;29.55;101965.00;7309260;19;129565;-51
2022/03/05 10:41:57;;;;;;;13.35;9.43;;;;;;;18.69;28.93;101976.09;7307890;19;129838;-60
2022/03/05 10:44:24;;;;;;;18.38;9.70;;;;;;;18.68;29.51;101971.63;7307005;19;129287;-50
2022/03/05 10:47:02;;;;;;;15.48;9.38;;;;;;;18.68;29.56;101960.53;7308405;19;129332;-54
2022/03/05 10:49:37;;;;;;;17.77;9.77;;;;;;;18.68;29.26;101971.63;7312034;19;130128;-49
2022/03/05 10:52:04;;;;;;;13.60;9.88;;;;;;;18.66;29.49;101962.66;7308011;19;130175;-48
2022/03/05 10:54:41;;;;;;;13.10;9.45;;;;;;;18.66;29.35;101961.78;7309514;19;129505;-48
2022/03/05 10:57:09;;;;;;;11.30;8.82;;;;;;;18.65;29.23;101966.50;7310668;19;129338;-51
2022/03/05 10:59:39;;;;;;;12.32;9.27;;;;;;;18.63;29.45;101957.56;7307529;19;130273;-51
2022/03/05 11:02:07;;;;;;;13.52;9.38;;;;;;;18.65;29.35;101960.09;7310903;19;129521;-51
2022/03/05 11:04:35;;;;;;;15.95;9.90;;;;;;;18.65;29.29;101962.88;7309291;19;129531;-54
2022/03/05 11:07:04;;;;;;;21.10;9.50;;;;;;;18.64;29.41;101962.03;7308408;19;128884;-51
2022/03/05 11:09:32;;;;;;;15.80;9.25;;;;;;;18.63;29.44;101960.31;7310404;19;129537;-50
2022/03/05 11:12:00;;;;;;;16.42;9.73;;;;;;;18.63;29.38;101963.09;7308970;19;130444;-48
2022/03/05 11:14:27;;;;;;;16.83;10.23;;;;;;;18.63;29.42;101962.25;7311446;19;129549;-49
2022/03/05 11:16:56;;;;;;;17.85;9.93;;;;;;;18.63;29.37;101957.56;7309080;19;129191;-48
2022/03/05 11:19:24;;;;;;;13.20;9.10;;;;;;;18.64;29.13;101961.19;7311165;19;130404;-49